sensor_id;sensor_type;location;lat;lon;timestamp;temperature;humidity
69189;DHT22;56302;52.322;5.926;2024-01-11T00:00:34;-7.40;81.00
69189;DHT22;56302;52.322;5.926;2024-01-11T00:03:00;-7.30;80.80
69189;DHT22;56302;52.322;5.926;2024-01-11T00:05:26;-7.40;80.60
69189;DHT22;56302;52.322;5.926;2024-01-11T00:07:52;-7.50;81.30
69189;DHT22;56302;52.322;5.926;2024-01-11T00:10:18;-7.60;81.80
69189;DHT22;56302;52.322;5.926;2024-01-11T00:12:43;-7.60;81.70
69189;DHT22;56302;52.322;5.926;2024-01-11T00:15:09;-7.50;81.50
69189;DHT22;56302;52.322;5.926;2024-01-11T00:17:36;-7.60;81.50
69189;DHT22;56302;52.322;5.926;2024-01-11T00:20:02;-7.60;81.90
69189;DHT22;56302;52.322;5.926;2024-01-11T00:22:28;-7.70;82.20
69189;DHT22;56302;52.322;5.926;2024-01-11T00:24:53;-7.70;82.30
69189;DHT22;56302;52.322;5.926;2024-01-11T00:27:19;-7.70;82.30
69189;DHT22;56302;52.322;5.926;2024-01-11T00:29:45;-7.70;82.30
69189;DHT22;56302;52.322;5.926;2024-01-11T00:32:10;-7.80;83.00
69189;DHT22;56302;52.322;5.926;2024-01-11T00:34:36;-7.80;83.20
69189;DHT22;56302;52.322;5.926;2024-01-11T00:37:02;-7.80;83.20
69189;DHT22;56302;52.322;5.926;2024-01-11T00:39:27;-7.80;82.90
69189;DHT22;56302;52.322;5.926;2024-01-11T00:41:54;-7.80;82.60
69189;DHT22;56302;52.322;5.926;2024-01-11T00:44:20;-7.80;82.30
69189;DHT22;56302;52.322;5.926;2024-01-11T00:46:46;-7.90;82.00
69189;DHT22;56302;52.322;5.926;2024-01-11T00:49:11;-7.90;82.00
69189;DHT22;56302;52.322;5.926;2024-01-11T00:51:37;-8.00;82.20
69189;DHT22;56302;52.322;5.926;2024-01-11T00:54:02;-8.00;82.60
69189;DHT22;56302;52.322;5.926;2024-01-11T00:56:28;-8.00;82.60
69189;DHT22;56302;52.322;5.926;2024-01-11T00:58:53;-8.10;82.70
69189;DHT22;56302;52.322;5.926;2024-01-11T01:01:19;-8.10;83.10
69189;DHT22;56302;52.322;5.926;2024-01-11T01:03:45;-8.10;83.30
69189;DHT22;56302;52.322;5.926;2024-01-11T01:06:10;-8.10;83.50
69189;DHT22;56302;52.322;5.926;2024-01-11T01:08:36;-8.10;83.20
69189;DHT22;56302;52.322;5.926;2024-01-11T01:11:02;-8.20;83.20
69189;DHT22;56302;52.322;5.926;2024-01-11T01:13:27;-8.10;83.10
69189;DHT22;56302;52.322;5.926;2024-01-11T01:15:53;-8.10;82.90
69189;DHT22;56302;52.322;5.926;2024-01-11T01:18:18;-8.10;82.70
69189;DHT22;56302;52.322;5.926;2024-01-11T01:20:44;-8.20;82.50
69189;DHT22;56302;52.322;5.926;2024-01-11T01:23:10;-8.20;82.60
69189;DHT22;56302;52.322;5.926;2024-01-11T01:25:35;-8.30;82.80
69189;DHT22;56302;52.322;5.926;2024-01-11T01:28:01;-8.30;82.90
69189;DHT22;56302;52.322;5.926;2024-01-11T01:30:27;-8.30;83.00
69189;DHT22;56302;52.322;5.926;2024-01-11T01:32:53;-8.40;83.50
69189;DHT22;56302;52.322;5.926;2024-01-11T01:35:19;-8.50;84.30
69189;DHT22;56302;52.322;5.926;2024-01-11T01:37:44;-8.60;84.90
69189;DHT22;56302;52.322;5.926;2024-01-11T01:40:11;-8.80;86.10
69189;DHT22;56302;52.322;5.926;2024-01-11T01:42:42;-8.90;87.20
69189;DHT22;56302;52.322;5.926;2024-01-11T01:45:08;-8.90;87.90
69189;DHT22;56302;52.322;5.926;2024-01-11T01:47:34;-8.80;88.50
69189;DHT22;56302;52.322;5.926;2024-01-11T01:49:59;-8.80;88.50
69189;DHT22;56302;52.322;5.926;2024-01-11T01:52:25;-8.70;88.10
69189;DHT22;56302;52.322;5.926;2024-01-11T01:54:51;-8.60;87.40
69189;DHT22;56302;52.322;5.926;2024-01-11T01:57:18;-8.60;86.80
69189;DHT22;56302;52.322;5.926;2024-01-11T01:59:45;-8.60;86.40
69189;DHT22;56302;52.322;5.926;2024-01-11T02:02:14;-8.70;86.40
69189;DHT22;56302;52.322;5.926;2024-01-11T02:04:40;-8.60;86.30
69189;DHT22;56302;52.322;5.926;2024-01-11T02:07:06;-8.60;85.70
69189;DHT22;56302;52.322;5.926;2024-01-11T02:09:32;-8.60;85.40
69189;DHT22;56302;52.322;5.926;2024-01-11T02:11:58;-8.60;85.30
69189;DHT22;56302;52.322;5.926;2024-01-11T02:14:25;-8.70;85.30
69189;DHT22;56302;52.322;5.926;2024-01-11T02:16:51;-8.70;85.50
69189;DHT22;56302;52.322;5.926;2024-01-11T02:19:18;-8.70;85.40
69189;DHT22;56302;52.322;5.926;2024-01-11T02:21:46;-8.70;85.40
69189;DHT22;56302;52.322;5.926;2024-01-11T02:24:13;-8.70;85.20
69189;DHT22;56302;52.322;5.926;2024-01-11T02:27:03;-8.60;85.00
69189;DHT22;56302;52.322;5.926;2024-01-11T02:29:31;-8.60;84.90
69189;DHT22;56302;52.322;5.926;2024-01-11T02:31:57;-8.70;84.70
69189;DHT22;56302;52.322;5.926;2024-01-11T02:34:24;-8.70;84.50
69189;DHT22;56302;52.322;5.926;2024-01-11T02:36:51;-8.80;84.70
69189;DHT22;56302;52.322;5.926;2024-01-11T02:39:19;-8.90;85.30
69189;DHT22;56302;52.322;5.926;2024-01-11T02:41:44;-9.00;85.80
69189;DHT22;56302;52.322;5.926;2024-01-11T02:44:10;-9.10;86.20
69189;DHT22;56302;52.322;5.926;2024-01-11T02:46:36;-9.20;87.10
69189;DHT22;56302;52.322;5.926;2024-01-11T02:49:01;-9.30;88.20
69189;DHT22;56302;52.322;5.926;2024-01-11T02:51:27;-9.40;89.10
69189;DHT22;56302;52.322;5.926;2024-01-11T02:53:53;-9.30;89.50
69189;DHT22;56302;52.322;5.926;2024-01-11T02:56:18;-9.10;89.30
69189;DHT22;56302;52.322;5.926;2024-01-11T02:58:44;-9.10;89.00
69189;DHT22;56302;52.322;5.926;2024-01-11T03:01:10;-9.10;88.70
69189;DHT22;56302;52.322;5.926;2024-01-11T03:03:35;-9.00;88.30
69189;DHT22;56302;52.322;5.926;2024-01-11T03:06:01;-8.90;87.70
69189;DHT22;56302;52.322;5.926;2024-01-11T03:08:27;-9.00;87.50
69189;DHT22;56302;52.322;5.926;2024-01-11T03:10:52;-9.00;87.40
69189;DHT22;56302;52.322;5.926;2024-01-11T03:13:18;-9.00;87.30
69189;DHT22;56302;52.322;5.926;2024-01-11T03:15:44;-9.00;87.20
69189;DHT22;56302;52.322;5.926;2024-01-11T03:18:09;-9.00;86.90
69189;DHT22;56302;52.322;5.926;2024-01-11T03:20:35;-9.00;86.90
69189;DHT22;56302;52.322;5.926;2024-01-11T03:23:01;-9.00;86.80
69189;DHT22;56302;52.322;5.926;2024-01-11T03:25:26;-9.00;86.60
69189;DHT22;56302;52.322;5.926;2024-01-11T03:27:52;-9.00;86.60
69189;DHT22;56302;52.322;5.926;2024-01-11T03:30:17;-9.10;86.60
69189;DHT22;56302;52.322;5.926;2024-01-11T03:32:43;-9.10;86.80
69189;DHT22;56302;52.322;5.926;2024-01-11T03:35:09;-9.10;87.00
69189;DHT22;56302;52.322;5.926;2024-01-11T03:37:35;-9.10;87.00
69189;DHT22;56302;52.322;5.926;2024-01-11T03:40:02;-9.10;86.90
69189;DHT22;56302;52.322;5.926;2024-01-11T03:42:28;-9.10;87.00
69189;DHT22;56302;52.322;5.926;2024-01-11T03:44:54;-9.10;87.00
69189;DHT22;56302;52.322;5.926;2024-01-11T03:47:19;-9.10;86.90
69189;DHT22;56302;52.322;5.926;2024-01-11T03:49:45;-9.20;87.30
69189;DHT22;56302;52.322;5.926;2024-01-11T03:52:10;-9.20;87.50
69189;DHT22;56302;52.322;5.926;2024-01-11T03:54:36;-9.20;87.50
69189;DHT22;56302;52.322;5.926;2024-01-11T03:57:02;-9.20;87.40
69189;DHT22;56302;52.322;5.926;2024-01-11T03:59:27;-9.20;87.40
69189;DHT22;56302;52.322;5.926;2024-01-11T04:01:53;-9.10;87.10
69189;DHT22;56302;52.322;5.926;2024-01-11T04:04:19;-9.10;86.70
69189;DHT22;56302;52.322;5.926;2024-01-11T04:06:45;-9.10;86.70
69189;DHT22;56302;52.322;5.926;2024-01-11T04:09:11;-9.00;86.50
69189;DHT22;56302;52.322;5.926;2024-01-11T04:11:36;-9.00;86.40
69189;DHT22;56302;52.322;5.926;2024-01-11T04:14:02;-9.00;86.30
69189;DHT22;56302;52.322;5.926;2024-01-11T04:16:27;-9.10;86.30
69189;DHT22;56302;52.322;5.926;2024-01-11T04:18:53;-9.20;86.50
69189;DHT22;56302;52.322;5.926;2024-01-11T04:21:22;-9.40;87.30
69189;DHT22;56302;52.322;5.926;2024-01-11T04:23:48;-9.40;88.20
69189;DHT22;56302;52.322;5.926;2024-01-11T04:26:13;-9.40;89.10
69189;DHT22;56302;52.322;5.926;2024-01-11T04:28:39;-9.30;89.10
69189;DHT22;56302;52.322;5.926;2024-01-11T04:31:05;-9.20;88.90
69189;DHT22;56302;52.322;5.926;2024-01-11T04:33:30;-9.20;88.70
69189;DHT22;56302;52.322;5.926;2024-01-11T04:35:56;-9.10;88.50
69189;DHT22;56302;52.322;5.926;2024-01-11T04:38:21;-9.00;88.20
69189;DHT22;56302;52.322;5.926;2024-01-11T04:40:47;-9.10;88.00
69189;DHT22;56302;52.322;5.926;2024-01-11T04:43:12;-9.10;88.20
69189;DHT22;56302;52.322;5.926;2024-01-11T04:45:38;-9.20;88.30
69189;DHT22;56302;52.322;5.926;2024-01-11T04:48:04;-9.10;88.30
69189;DHT22;56302;52.322;5.926;2024-01-11T04:50:29;-9.10;88.10
69189;DHT22;56302;52.322;5.926;2024-01-11T04:52:55;-9.10;88.00
69189;DHT22;56302;52.322;5.926;2024-01-11T04:55:20;-9.10;88.00
69189;DHT22;56302;52.322;5.926;2024-01-11T04:57:46;-9.10;87.80
69189;DHT22;56302;52.322;5.926;2024-01-11T05:00:12;-9.10;87.70
69189;DHT22;56302;52.322;5.926;2024-01-11T05:02:37;-9.10;87.60
69189;DHT22;56302;52.322;5.926;2024-01-11T05:05:03;-9.00;87.30
69189;DHT22;56302;52.322;5.926;2024-01-11T05:07:29;-9.00;87.00
69189;DHT22;56302;52.322;5.926;2024-01-11T05:09:55;-9.00;87.00
69189;DHT22;56302;52.322;5.926;2024-01-11T05:12:20;-9.00;86.90
69189;DHT22;56302;52.322;5.926;2024-01-11T05:14:46;-9.00;86.80
69189;DHT22;56302;52.322;5.926;2024-01-11T05:17:11;-9.10;86.80
69189;DHT22;56302;52.322;5.926;2024-01-11T05:19:37;-9.30;87.40
69189;DHT22;56302;52.322;5.926;2024-01-11T05:22:03;-9.30;88.40
69189;DHT22;56302;52.322;5.926;2024-01-11T05:24:28;-9.30;88.70
69189;DHT22;56302;52.322;5.926;2024-01-11T05:26:54;-9.20;88.60
69189;DHT22;56302;52.322;5.926;2024-01-11T05:29:19;-9.20;88.20
69189;DHT22;56302;52.322;5.926;2024-01-11T05:31:45;-9.30;88.30
69189;DHT22;56302;52.322;5.926;2024-01-11T05:34:11;-9.30;88.70
69189;DHT22;56302;52.322;5.926;2024-01-11T05:36:38;-9.40;88.90
69189;DHT22;56302;52.322;5.926;2024-01-11T05:39:04;-9.50;89.40
69189;DHT22;56302;52.322;5.926;2024-01-11T05:41:29;-9.50;89.90
69189;DHT22;56302;52.322;5.926;2024-01-11T05:43:55;-9.50;90.10
69189;DHT22;56302;52.322;5.926;2024-01-11T05:46:21;-9.60;90.70
69189;DHT22;56302;52.322;5.926;2024-01-11T05:48:46;-9.50;91.20
69189;DHT22;56302;52.322;5.926;2024-01-11T05:51:12;-9.50;91.20
69189;DHT22;56302;52.322;5.926;2024-01-11T05:53:37;-9.50;91.20
69189;DHT22;56302;52.322;5.926;2024-01-11T05:56:10;-9.50;91.60
69189;DHT22;56302;52.322;5.926;2024-01-11T05:58:36;-9.50;91.70
69189;DHT22;56302;52.322;5.926;2024-01-11T06:01:03;-9.50;91.80
69189;DHT22;56302;52.322;5.926;2024-01-11T06:03:29;-9.40;91.80
69189;DHT22;56302;52.322;5.926;2024-01-11T06:05:55;-9.40;91.60
69189;DHT22;56302;52.322;5.926;2024-01-11T06:08:20;-9.30;91.20
69189;DHT22;56302;52.322;5.926;2024-01-11T06:10:46;-9.30;90.90
69189;DHT22;56302;52.322;5.926;2024-01-11T06:13:12;-9.30;90.90
69189;DHT22;56302;52.322;5.926;2024-01-11T06:15:38;-9.30;90.80
69189;DHT22;56302;52.322;5.926;2024-01-11T06:18:03;-9.30;90.70
69189;DHT22;56302;52.322;5.926;2024-01-11T06:20:30;-9.30;90.70
69189;DHT22;56302;52.322;5.926;2024-01-11T06:22:55;-9.30;90.70
69189;DHT22;56302;52.322;5.926;2024-01-11T06:25:21;-9.30;90.80
69189;DHT22;56302;52.322;5.926;2024-01-11T06:27:47;-9.30;90.80
69189;DHT22;56302;52.322;5.926;2024-01-11T06:30:13;-9.30;90.70
69189;DHT22;56302;52.322;5.926;2024-01-11T06:32:38;-9.30;90.50
69189;DHT22;56302;52.322;5.926;2024-01-11T06:35:04;-9.20;90.20
69189;DHT22;56302;52.322;5.926;2024-01-11T06:37:30;-9.20;89.90
69189;DHT22;56302;52.322;5.926;2024-01-11T06:39:56;-9.20;89.40
69189;DHT22;56302;52.322;5.926;2024-01-11T06:42:22;-9.10;89.00
69189;DHT22;56302;52.322;5.926;2024-01-11T06:44:48;-9.10;88.70
69189;DHT22;56302;52.322;5.926;2024-01-11T06:47:13;-9.10;88.50
69189;DHT22;56302;52.322;5.926;2024-01-11T06:49:40;-9.20;88.50
69189;DHT22;56302;52.322;5.926;2024-01-11T06:52:06;-9.20;89.00
69189;DHT22;56302;52.322;5.926;2024-01-11T06:54:31;-9.20;89.10
69189;DHT22;56302;52.322;5.926;2024-01-11T06:56:57;-9.10;89.20
69189;DHT22;56302;52.322;5.926;2024-01-11T06:59:23;-9.10;89.30
69189;DHT22;56302;52.322;5.926;2024-01-11T07:01:49;-9.10;89.10
69189;DHT22;56302;52.322;5.926;2024-01-11T07:04:14;-9.10;88.90
69189;DHT22;56302;52.322;5.926;2024-01-11T07:06:40;-9.10;88.80
69189;DHT22;56302;52.322;5.926;2024-01-11T07:09:06;-9.10;88.80
69189;DHT22;56302;52.322;5.926;2024-01-11T07:11:31;-9.20;88.90
69189;DHT22;56302;52.322;5.926;2024-01-11T07:13:58;-9.30;89.70
69189;DHT22;56302;52.322;5.926;2024-01-11T07:16:23;-9.40;90.50
69189;DHT22;56302;52.322;5.926;2024-01-11T07:18:49;-9.40;91.20
69189;DHT22;56302;52.322;5.926;2024-01-11T07:21:24;-9.30;91.60
69189;DHT22;56302;52.322;5.926;2024-01-11T07:23:59;-9.30;91.80
69189;DHT22;56302;52.322;5.926;2024-01-11T07:26:25;-9.30;91.80
69189;DHT22;56302;52.322;5.926;2024-01-11T07:28:51;-9.30;91.90
69189;DHT22;56302;52.322;5.926;2024-01-11T07:31:17;-9.20;91.70
69189;DHT22;56302;52.322;5.926;2024-01-11T07:33:43;-9.20;91.50
69189;DHT22;56302;52.322;5.926;2024-01-11T07:36:09;-9.20;92.10
69189;DHT22;56302;52.322;5.926;2024-01-11T07:38:34;-9.20;92.30
69189;DHT22;56302;52.322;5.926;2024-01-11T07:41:00;-9.20;92.30
69189;DHT22;56302;52.322;5.926;2024-01-11T07:43:27;-9.20;92.20
69189;DHT22;56302;52.322;5.926;2024-01-11T07:45:56;-9.10;92.00
69189;DHT22;56302;52.322;5.926;2024-01-11T07:48:22;-9.10;91.60
69189;DHT22;56302;52.322;5.926;2024-01-11T07:50:48;-9.10;91.20
69189;DHT22;56302;52.322;5.926;2024-01-11T07:53:14;-9.10;90.70
69189;DHT22;56302;52.322;5.926;2024-01-11T07:55:40;-9.20;90.50
69189;DHT22;56302;52.322;5.926;2024-01-11T07:58:06;-9.30;90.70
69189;DHT22;56302;52.322;5.926;2024-01-11T08:00:32;-9.20;90.50
69189;DHT22;56302;52.322;5.926;2024-01-11T08:02:58;-9.20;90.70
69189;DHT22;56302;52.322;5.926;2024-01-11T08:05:23;-9.20;90.70
69189;DHT22;56302;52.322;5.926;2024-01-11T08:07:49;-9.20;91.00
69189;DHT22;56302;52.322;5.926;2024-01-11T08:10:15;-9.20;90.90
69189;DHT22;56302;52.322;5.926;2024-01-11T08:12:40;-9.10;91.10
69189;DHT22;56302;52.322;5.926;2024-01-11T08:15:06;-9.20;91.50
69189;DHT22;56302;52.322;5.926;2024-01-11T08:17:32;-9.20;91.80
69189;DHT22;56302;52.322;5.926;2024-01-11T08:19:57;-9.20;92.10
69189;DHT22;56302;52.322;5.926;2024-01-11T08:22:23;-9.20;92.40
69189;DHT22;56302;52.322;5.926;2024-01-11T08:24:49;-9.10;92.40
69189;DHT22;56302;52.322;5.926;2024-01-11T08:27:15;-9.00;92.40
69189;DHT22;56302;52.322;5.926;2024-01-11T08:29:43;-8.90;92.60
69189;DHT22;56302;52.322;5.926;2024-01-11T08:32:08;-8.80;92.80
69189;DHT22;56302;52.322;5.926;2024-01-11T08:34:34;-8.70;92.90
69189;DHT22;56302;52.322;5.926;2024-01-11T08:37:00;-8.60;93.20
69189;DHT22;56302;52.322;5.926;2024-01-11T08:39:25;-8.40;94.00
69189;DHT22;56302;52.322;5.926;2024-01-11T08:41:51;-8.20;94.60
69189;DHT22;56302;52.322;5.926;2024-01-11T08:44:18;-8.00;95.30
69189;DHT22;56302;52.322;5.926;2024-01-11T08:46:43;-7.80;95.30
69189;DHT22;56302;52.322;5.926;2024-01-11T08:49:09;-7.70;95.80
69189;DHT22;56302;52.322;5.926;2024-01-11T08:51:35;-7.60;95.60
69189;DHT22;56302;52.322;5.926;2024-01-11T08:54:00;-7.50;96.00
69189;DHT22;56302;52.322;5.926;2024-01-11T08:56:26;-7.40;96.20
69189;DHT22;56302;52.322;5.926;2024-01-11T08:58:52;-7.20;96.70
69189;DHT22;56302;52.322;5.926;2024-01-11T09:01:17;-7.10;96.90
69189;DHT22;56302;52.322;5.926;2024-01-11T09:03:45;-7.00;97.10
69189;DHT22;56302;52.322;5.926;2024-01-11T09:06:13;-6.90;97.30
69189;DHT22;56302;52.322;5.926;2024-01-11T09:08:39;-6.80;97.40
69189;DHT22;56302;52.322;5.926;2024-01-11T09:11:06;-6.70;97.60
69189;DHT22;56302;52.322;5.926;2024-01-11T09:13:32;-6.60;97.70
69189;DHT22;56302;52.322;5.926;2024-01-11T09:15:58;-6.50;97.80
69189;DHT22;56302;52.322;5.926;2024-01-11T09:18:24;-6.50;98.00
69189;DHT22;56302;52.322;5.926;2024-01-11T09:20:49;-6.30;98.10
69189;DHT22;56302;52.322;5.926;2024-01-11T09:23:16;-6.30;98.20
69189;DHT22;56302;52.322;5.926;2024-01-11T09:25:41;-6.20;98.30
69189;DHT22;56302;52.322;5.926;2024-01-11T09:28:07;-6.10;98.40
69189;DHT22;56302;52.322;5.926;2024-01-11T09:30:33;-6.10;98.40
69189;DHT22;56302;52.322;5.926;2024-01-11T09:32:59;-5.90;98.70
69189;DHT22;56302;52.322;5.926;2024-01-11T09:35:25;-5.80;99.00
69189;DHT22;56302;52.322;5.926;2024-01-11T09:37:51;-5.70;98.90
69189;DHT22;56302;52.322;5.926;2024-01-11T09:40:18;-5.70;99.00
69189;DHT22;56302;52.322;5.926;2024-01-11T09:42:43;-5.50;99.30
69189;DHT22;56302;52.322;5.926;2024-01-11T09:45:12;-5.40;99.20
69189;DHT22;56302;52.322;5.926;2024-01-11T09:47:39;-5.30;99.40
69189;DHT22;56302;52.322;5.926;2024-01-11T09:50:08;-5.30;99.40
69189;DHT22;56302;52.322;5.926;2024-01-11T09:52:36;-5.20;99.50
69189;DHT22;56302;52.322;5.926;2024-01-11T09:55:03;-5.20;99.50
69189;DHT22;56302;52.322;5.926;2024-01-11T09:57:30;-5.10;99.50
69189;DHT22;56302;52.322;5.926;2024-01-11T09:59:58;-5.10;99.60
69189;DHT22;56302;52.322;5.926;2024-01-11T10:02:25;-5.00;99.60
69189;DHT22;56302;52.322;5.926;2024-01-11T10:04:54;-4.90;99.50
69189;DHT22;56302;52.322;5.926;2024-01-11T10:07:23;-4.80;99.60
69189;DHT22;56302;52.322;5.926;2024-01-11T10:09:50;-4.70;99.60
69189;DHT22;56302;52.322;5.926;2024-01-11T10:12:17;-4.60;99.70
69189;DHT22;56302;52.322;5.926;2024-01-11T10:14:46;-4.60;99.80
69189;DHT22;56302;52.322;5.926;2024-01-11T10:17:11;-4.50;99.90
69189;DHT22;56302;52.322;5.926;2024-01-11T10:19:37;-4.40;99.90
69189;DHT22;56302;52.322;5.926;2024-01-11T10:22:03;-4.30;99.90
69189;DHT22;56302;52.322;5.926;2024-01-11T10:24:30;-4.30;99.90
69189;DHT22;56302;52.322;5.926;2024-01-11T10:26:56;-4.20;99.90
69189;DHT22;56302;52.322;5.926;2024-01-11T10:29:22;-4.20;99.90
69189;DHT22;56302;52.322;5.926;2024-01-11T10:31:49;-4.10;99.90
69189;DHT22;56302;52.322;5.926;2024-01-11T10:34:16;-4.10;99.90
69189;DHT22;56302;52.322;5.926;2024-01-11T10:36:42;-4.00;99.90
69189;DHT22;56302;52.322;5.926;2024-01-11T10:39:09;-3.90;99.80
69189;DHT22;56302;52.322;5.926;2024-01-11T10:41:47;-3.90;99.80
69189;DHT22;56302;52.322;5.926;2024-01-11T10:44:20;-3.70;99.80
69189;DHT22;56302;52.322;5.926;2024-01-11T10:46:49;-3.70;99.80
69189;DHT22;56302;52.322;5.926;2024-01-11T10:49:18;-3.70;99.80
69189;DHT22;56302;52.322;5.926;2024-01-11T10:52:02;-3.50;99.90
69189;DHT22;56302;52.322;5.926;2024-01-11T10:54:30;-3.50;99.80
69189;DHT22;56302;52.322;5.926;2024-01-11T10:57:00;-3.40;99.70
69189;DHT22;56302;52.322;5.926;2024-01-11T10:59:29;-3.40;99.60
69189;DHT22;56302;52.322;5.926;2024-01-11T11:01:58;-3.30;99.70
69189;DHT22;56302;52.322;5.926;2024-01-11T11:04:29;-3.20;99.70
69189;DHT22;56302;52.322;5.926;2024-01-11T11:06:56;-3.20;99.60
69189;DHT22;56302;52.322;5.926;2024-01-11T11:09:25;-3.10;99.60
69189;DHT22;56302;52.322;5.926;2024-01-11T11:11:54;-3.00;99.50
69189;DHT22;56302;52.322;5.926;2024-01-11T11:14:22;-3.00;99.50
69189;DHT22;56302;52.322;5.926;2024-01-11T11:16:48;-2.90;99.40
69189;DHT22;56302;52.322;5.926;2024-01-11T11:19:14;-2.90;99.40
69189;DHT22;56302;52.322;5.926;2024-01-11T11:21:43;-2.80;99.40
69189;DHT22;56302;52.322;5.926;2024-01-11T11:24:10;-2.70;99.30
69189;DHT22;56302;52.322;5.926;2024-01-11T11:26:36;-2.70;99.20
69189;DHT22;56302;52.322;5.926;2024-01-11T11:29:03;-2.60;99.20
69189;DHT22;56302;52.322;5.926;2024-01-11T11:34:01;-2.50;99.10
69189;DHT22;56302;52.322;5.926;2024-01-11T11:36:29;-2.40;99.10
69189;DHT22;56302;52.322;5.926;2024-01-11T11:38:57;-2.30;99.00
69189;DHT22;56302;52.322;5.926;2024-01-11T11:41:26;-2.30;99.00
69189;DHT22;56302;52.322;5.926;2024-01-11T11:43:52;-2.20;98.90
69189;DHT22;56302;52.322;5.926;2024-01-11T11:46:18;-2.20;98.70
69189;DHT22;56302;52.322;5.926;2024-01-11T11:48:48;-2.10;98.80
69189;DHT22;56302;52.322;5.926;2024-01-11T11:51:17;-2.00;98.70
69189;DHT22;56302;52.322;5.926;2024-01-11T11:53:45;-1.90;98.80
69189;DHT22;56302;52.322;5.926;2024-01-11T11:56:12;-1.70;99.00
69189;DHT22;56302;52.322;5.926;2024-01-11T11:58:40;-1.70;98.90
69189;DHT22;56302;52.322;5.926;2024-01-11T12:01:06;-1.60;98.80
69189;DHT22;56302;52.322;5.926;2024-01-11T12:03:33;-1.50;98.80
69189;DHT22;56302;52.322;5.926;2024-01-11T12:06:03;-1.50;98.60
69189;DHT22;56302;52.322;5.926;2024-01-11T12:08:29;-1.40;98.60
69189;DHT22;56302;52.322;5.926;2024-01-11T12:10:55;-1.30;98.40
69189;DHT22;56302;52.322;5.926;2024-01-11T12:13:21;-1.20;98.30
69189;DHT22;56302;52.322;5.926;2024-01-11T12:15:47;-1.20;98.20
69189;DHT22;56302;52.322;5.926;2024-01-11T12:18:13;-1.10;98.30
69189;DHT22;56302;52.322;5.926;2024-01-11T12:20:38;-1.10;98.10
69189;DHT22;56302;52.322;5.926;2024-01-11T12:23:04;-1.00;97.90
69189;DHT22;56302;52.322;5.926;2024-01-11T12:25:30;-1.00;97.90
69189;DHT22;56302;52.322;5.926;2024-01-11T12:27:57;-0.90;97.80
69189;DHT22;56302;52.322;5.926;2024-01-11T12:30:26;-0.80;97.60
69189;DHT22;56302;52.322;5.926;2024-01-11T12:32:56;-0.80;97.50
69189;DHT22;56302;52.322;5.926;2024-01-11T12:35:22;-0.70;97.50
69189;DHT22;56302;52.322;5.926;2024-01-11T12:38:03;-0.60;97.30
69189;DHT22;56302;52.322;5.926;2024-01-11T12:40:32;-0.50;97.30
69189;DHT22;56302;52.322;5.926;2024-01-11T12:42:59;-0.50;97.20
69189;DHT22;56302;52.322;5.926;2024-01-11T12:45:25;-0.50;97.00
69189;DHT22;56302;52.322;5.926;2024-01-11T12:47:55;-0.40;97.10
69189;DHT22;56302;52.322;5.926;2024-01-11T12:50:22;-0.40;97.10
69189;DHT22;56302;52.322;5.926;2024-01-11T12:53:07;-0.30;96.90
69189;DHT22;56302;52.322;5.926;2024-01-11T12:55:33;-0.30;96.80
69189;DHT22;56302;52.322;5.926;2024-01-11T12:58:07;-0.20;96.70
69189;DHT22;56302;52.322;5.926;2024-01-11T13:00:35;-0.10;96.70
69189;DHT22;56302;52.322;5.926;2024-01-11T13:03:01;-0.10;96.50
69189;DHT22;56302;52.322;5.926;2024-01-11T13:05:26;0.00;96.50
69189;DHT22;56302;52.322;5.926;2024-01-11T13:07:52;0.00;96.30
69189;DHT22;56302;52.322;5.926;2024-01-11T13:10:17;0.10;96.20
69189;DHT22;56302;52.322;5.926;2024-01-11T13:12:43;0.10;96.10
69189;DHT22;56302;52.322;5.926;2024-01-11T13:15:09;0.20;96.20
69189;DHT22;56302;52.322;5.926;2024-01-11T13:17:34;0.30;96.10
69189;DHT22;56302;52.322;5.926;2024-01-11T13:20:00;0.30;96.00
69189;DHT22;56302;52.322;5.926;2024-01-11T13:22:27;0.30;96.00
69189;DHT22;56302;52.322;5.926;2024-01-11T13:24:53;0.30;95.80
69189;DHT22;56302;52.322;5.926;2024-01-11T13:27:18;0.40;95.70
69189;DHT22;56302;52.322;5.926;2024-01-11T13:29:44;0.40;95.40
69189;DHT22;56302;52.322;5.926;2024-01-11T13:32:10;0.40;95.30
69189;DHT22;56302;52.322;5.926;2024-01-11T13:34:36;0.40;95.30
69189;DHT22;56302;52.322;5.926;2024-01-11T13:37:02;0.50;95.40
69189;DHT22;56302;52.322;5.926;2024-01-11T13:39:28;0.50;95.50
69189;DHT22;56302;52.322;5.926;2024-01-11T13:41:54;0.50;95.50
69189;DHT22;56302;52.322;5.926;2024-01-11T13:44:19;0.50;95.40
69189;DHT22;56302;52.322;5.926;2024-01-11T13:46:45;0.40;95.30
69189;DHT22;56302;52.322;5.926;2024-01-11T13:49:10;0.40;95.30
69189;DHT22;56302;52.322;5.926;2024-01-11T13:51:36;0.40;95.20
69189;DHT22;56302;52.322;5.926;2024-01-11T13:54:03;0.50;95.10
69189;DHT22;56302;52.322;5.926;2024-01-11T13:56:28;0.50;95.10
69189;DHT22;56302;52.322;5.926;2024-01-11T13:58:54;0.50;95.10
69189;DHT22;56302;52.322;5.926;2024-01-11T14:01:20;0.60;95.10
69189;DHT22;56302;52.322;5.926;2024-01-11T14:03:46;0.60;95.10
69189;DHT22;56302;52.322;5.926;2024-01-11T14:06:12;0.60;95.20
69189;DHT22;56302;52.322;5.926;2024-01-11T14:08:38;0.60;95.20
69189;DHT22;56302;52.322;5.926;2024-01-11T14:11:04;0.60;95.30
69189;DHT22;56302;52.322;5.926;2024-01-11T14:13:29;0.60;95.20
69189;DHT22;56302;52.322;5.926;2024-01-11T14:15:55;0.70;95.30
69189;DHT22;56302;52.322;5.926;2024-01-11T14:18:22;0.70;95.30
69189;DHT22;56302;52.322;5.926;2024-01-11T14:20:48;0.70;95.30
69189;DHT22;56302;52.322;5.926;2024-01-11T14:23:13;0.70;95.10
69189;DHT22;56302;52.322;5.926;2024-01-11T14:25:39;0.70;95.10
69189;DHT22;56302;52.322;5.926;2024-01-11T14:28:05;0.70;95.10
69189;DHT22;56302;52.322;5.926;2024-01-11T14:30:31;0.70;95.10
69189;DHT22;56302;52.322;5.926;2024-01-11T14:32:56;0.70;95.30
69189;DHT22;56302;52.322;5.926;2024-01-11T14:35:22;0.70;95.30
69189;DHT22;56302;52.322;5.926;2024-01-11T14:37:47;0.70;95.30
69189;DHT22;56302;52.322;5.926;2024-01-11T14:40:13;0.70;95.30
69189;DHT22;56302;52.322;5.926;2024-01-11T14:42:39;0.70;95.30
69189;DHT22;56302;52.322;5.926;2024-01-11T14:45:06;0.70;95.40
69189;DHT22;56302;52.322;5.926;2024-01-11T14:47:34;0.70;95.50
69189;DHT22;56302;52.322;5.926;2024-01-11T14:50:00;0.70;95.60
69189;DHT22;56302;52.322;5.926;2024-01-11T14:52:26;0.70;95.90
69189;DHT22;56302;52.322;5.926;2024-01-11T14:54:51;0.70;96.00
69189;DHT22;56302;52.322;5.926;2024-01-11T14:57:17;0.60;96.10
69189;DHT22;56302;52.322;5.926;2024-01-11T14:59:43;0.70;96.20
69189;DHT22;56302;52.322;5.926;2024-01-11T15:02:10;0.60;96.30
69189;DHT22;56302;52.322;5.926;2024-01-11T15:04:36;0.60;96.60
69189;DHT22;56302;52.322;5.926;2024-01-11T15:07:02;0.60;96.60
69189;DHT22;56302;52.322;5.926;2024-01-11T15:09:27;0.60;96.60
69189;DHT22;56302;52.322;5.926;2024-01-11T15:11:54;0.60;96.40
69189;DHT22;56302;52.322;5.926;2024-01-11T15:14:19;0.60;96.40
69189;DHT22;56302;52.322;5.926;2024-01-11T15:16:45;0.50;96.40
69189;DHT22;56302;52.322;5.926;2024-01-11T15:19:12;0.50;96.40
69189;DHT22;56302;52.322;5.926;2024-01-11T15:21:41;0.50;96.30
69189;DHT22;56302;52.322;5.926;2024-01-11T15:24:07;0.50;96.30
69189;DHT22;56302;52.322;5.926;2024-01-11T15:26:33;0.50;96.40
69189;DHT22;56302;52.322;5.926;2024-01-11T15:28:59;0.50;96.40